Terminal Aerodrome Forecast
Issued by NWS

Home | Current Version | Previous Version | Text Only | Print | Product List | Glossary On
Versions: 1 2 3 4 5 6 7 8 9 10 11 12 13 14 15 16
000
FTUS44 KBMX 250520
TAFEET
TAF
KEET 250520Z 2506/2606 12005KT P6SM BKN060
     FM250900 14008KT P6SM OVC015
      TEMPO 2511/2515 4SM BR BKN007 OVC015
     FM251800 15006KT 5SM SHRA VCTS SCT020 BKN040CB=

USA.gov is the U.S. government's official web portal to all federal, state and local government web resources and services.